Time;durP1;ratioP1;P1;durP2;ratioP2;P2;SDS_P1;SDS_P2;PMS_P1;PMS_P2;Temp;Humidity;BMP_temperature;BMP_pressure;BME280_temperature;BME280_humidity;BME280_pressure;Samples;Min_cycle;Max_cycle;Signal;HPM_P1;HPM_P2
2023/08/10 00:01:22;;;;;;;2.93;1.87;;;;;;;21.56;68.88;100636.13;5114130;28;20177;-63
2023/08/10 00:03:48;;;;;;;3.13;1.77;;;;;;;21.54;68.74;100630.78;5118098;28;20197;-63
2023/08/10 00:06:14;;;;;;;2.60;2.00;;;;;;;21.54;69.18;100629.94;5116641;28;20170;-63
2023/08/10 00:08:40;;;;;;;2.70;1.90;;;;;;;21.53;68.70;100634.84;5117133;28;20174;-63
2023/08/10 00:11:06;;;;;;;2.70;1.80;;;;;;;21.52;68.81;100643.88;5087393;28;20436;-63
2023/08/10 00:13:32;;;;;;;3.20;1.87;;;;;;;21.51;68.92;100643.06;5108404;28;20840;-63
2023/08/10 00:15:57;;;;;;;3.23;1.60;;;;;;;21.50;69.07;100638.53;5113580;28;20287;-63
2023/08/10 00:18:23;;;;;;;3.83;1.90;;;;;;;21.49;68.73;100639.75;5099334;28;20178;-63
2023/08/10 00:20:48;;;;;;;2.70;1.60;;;;;;;21.49;68.77;100645.50;5123860;27;20201;-63
2023/08/10 00:23:14;;;;;;;2.90;1.87;;;;;;;21.48;69.00;100651.63;5116822;28;20528;-63
2023/08/10 00:25:39;;;;;;;2.20;1.60;;;;;;;21.48;69.02;100648.75;5104097;28;20190;-63
2023/08/10 00:28:05;;;;;;;4.20;1.90;;;;;;;21.47;68.73;100653.66;5092249;28;20178;-63
2023/08/10 00:30:30;;;;;;;3.80;1.53;;;;;;;;;;5113205;28;20173;-63
2023/08/10 00:32:55;;;;;;;3.90;1.73;;;;;;;;;;5112876;28;20288;-63
2023/08/10 00:35:21;;;;;;;9.23;1.80;;;;;;;21.45;68.65;100650.38;5114874;28;20162;-63
2023/08/10 00:37:46;;;;;;;3.77;2.00;;;;;;;21.46;68.60;100654.91;5103068;28;20190;-63
2023/08/10 00:40:12;;;;;;;3.00;2.10;;;;;;;21.44;68.65;100648.72;5095787;28;20232;-63
2023/08/10 00:42:39;;;;;;;3.37;1.53;;;;;;;21.44;68.69;100650.75;5096985;28;20182;-63
2023/08/10 00:45:05;;;;;;;2.77;1.60;;;;;;;21.43;69.17;100660.59;5111289;28;20195;-62
2023/08/10 00:47:30;;;;;;;4.10;2.00;;;;;;;21.42;68.94;100654.03;5113117;28;20415;-63
2023/08/10 00:49:56;;;;;;;2.73;1.87;;;;;;;21.42;69.05;100650.34;5110311;28;20217;-63
2023/08/10 00:52:21;;;;;;;2.97;1.80;;;;;;;21.43;68.48;100663.47;5096187;28;20166;-63
2023/08/10 00:54:46;;;;;;;2.60;1.80;;;;;;;21.41;68.65;100655.25;5091349;28;20186;-63
2023/08/10 00:57:12;;;;;;;3.30;1.70;;;;;;;21.41;68.61;100658.13;5099337;28;20185;-63
2023/08/10 00:59:37;;;;;;;2.83;1.80;;;;;;;21.40;68.98;100659.34;5100714;28;20237;-63
2023/08/10 01:02:03;;;;;;;3.33;1.90;;;;;;;21.40;68.87;100658.50;5102219;28;20186;-63
2023/08/10 01:04:28;;;;;;;3.40;1.83;;;;;;;21.39;68.90;100663.44;5077264;28;20945;-63
2023/08/10 01:07:22;;;;;;;4.47;1.80;;;;;;;21.39;68.72;100659.72;5101049;28;20181;-63
2023/08/10 01:10:28;;;;;;;2.00;1.40;;;;;;;21.39;68.73;100656.84;5095565;28;20194;-63
2023/08/10 01:12:58;;;;;;;4.03;1.60;;;;;;;21.39;69.24;100671.22;5101552;28;20440;-63
2023/08/10 01:15:32;;;;;;;3.40;2.00;;;;;;;21.37;68.57;100665.84;5097850;28;20438;-63
2023/08/10 01:17:58;;;;;;;2.77;1.60;;;;;;;21.36;69.05;100672.81;5122937;28;20499;-63
2023/08/10 01:20:24;;;;;;;3.03;1.87;;;;;;;21.37;68.84;100671.59;5086727;28;20515;-62
2023/08/10 01:22:55;;;;;;;3.17;1.80;;;;;;;21.37;68.52;100671.59;5104387;28;20185;-63
2023/08/10 01:25:21;;;;;;;5.50;2.10;;;;;;;21.36;69.15;100672.81;5104101;28;20177;-63
2023/08/10 01:27:46;;;;;;;3.57;2.20;;;;;;;21.36;68.73;100674.84;5102938;28;20963;-62
2023/08/10 01:30:12;;;;;;;2.60;1.50;;;;;;;21.35;69.14;100673.22;5118145;28;20182;-63
2023/08/10 01:32:37;;;;;;;2.33;1.50;;;;;;;21.35;68.89;100674.06;5104084;28;20171;-63
2023/08/10 01:35:06;;;;;;;2.50;1.57;;;;;;;21.34;69.15;100677.31;5104905;28;20228;-63
2023/08/10 01:37:35;;;;;;;2.47;1.73;;;;;;;21.34;69.10;100680.19;5105700;28;20301;-62
2023/08/10 01:40:00;;;;;;;2.30;1.67;;;;;;;21.33;69.07;100673.59;5117863;28;20465;-62
2023/08/10 01:42:26;;;;;;;4.90;1.90;;;;;;;21.34;69.02;100671.56;5110625;28;20440;-62
2023/08/10 01:44:52;;;;;;;2.30;1.53;;;;;;;21.33;69.11;100672.78;5111943;28;20184;-62
2023/08/10 01:47:29;;;;;;;3.20;1.57;;;;;;;21.32;69.18;100669.06;5118005;28;20169;-63
2023/08/10 01:49:59;;;;;;;2.57;1.33;;;;;;;21.32;69.08;100674.00;5095991;28;20269;-63
2023/08/10 01:52:28;;;;;;;2.60;1.60;;;;;;;21.32;68.84;100677.69;5101459;28;20439;-63
2023/08/10 01:54:54;;;;;;;3.67;1.50;;;;;;;21.31;69.11;100673.16;5098967;28;20408;-63
2023/08/10 01:57:19;;;;;;;2.60;1.50;;;;;;;21.31;68.58;100681.78;5102658;28;20795;-63
2023/08/10 01:59:45;;;;;;;2.30;1.30;;;;;;;21.31;69.20;100686.69;5081378;28;20189;-63
2023/08/10 02:02:10;;;;;;;2.80;1.90;;;;;;;21.30;69.15;100687.91;5078238;28;20170;-63
2023/08/10 02:04:37;;;;;;;4.77;2.00;;;;;;;21.29;69.25;100681.38;5099315;28;20185;-63
2023/08/10 02:07:03;;;;;;;2.20;1.30;;;;;;;21.29;69.27;100684.25;5099163;28;20503;-63
2023/08/10 02:09:29;;;;;;;2.93;2.00;;;;;;;21.29;68.70;100681.38;5099327;28;20412;-63
2023/08/10 02:11:54;;;;;;;3.73;2.10;;;;;;;21.29;68.65;100687.09;5115023;28;20435;-63
2023/08/10 02:14:20;;;;;;;2.83;1.57;;;;;;;21.29;68.83;100678.50;5101175;28;20173;-63
2023/08/10 02:16:45;;;;;;;2.83;1.60;;;;;;;21.28;68.58;100688.31;5107819;28;20661;-63
2023/08/10 02:19:11;;;;;;;2.73;1.40;;;;;;;21.27;68.47;100682.97;5100139;28;20193;-63
2023/08/10 02:21:36;;;;;;;2.93;1.83;;;;;;;21.27;68.53;100678.03;5103169;28;20197;-63
2023/08/10 02:24:02;;;;;;;4.70;1.93;;;;;;;21.28;68.86;100678.88;5102697;28;20228;-62
2023/08/10 02:26:27;;;;;;;4.00;2.10;;;;;;;21.27;68.41;100672.28;5110750;28;20417;-63
2023/08/10 02:28:53;;;;;;;2.80;1.97;;;;;;;21.28;68.41;100673.13;5118416;28;20186;-63
2023/08/10 02:31:18;;;;;;;3.57;2.00;;;;;;;21.26;68.36;100667.78;5119129;28;20507;-63
2023/08/10 02:33:44;;;;;;;4.70;2.00;;;;;;;21.26;68.89;100659.16;5118021;28;20220;-62
2023/08/10 02:36:09;;;;;;;2.83;1.97;;;;;;;21.25;68.44;100666.13;5101761;28;20204;-62
2023/08/10 02:38:35;;;;;;;3.10;2.07;;;;;;;21.25;69.05;100656.66;5109409;28;20178;-62
2023/08/10 02:41:00;;;;;;;4.50;2.50;;;;;;;21.25;69.11;100657.50;5103394;28;20206;-62
2023/08/10 02:43:25;;;;;;;3.37;2.13;;;;;;;21.25;68.92;100660.38;5102869;28;20174;-63
2023/08/10 02:45:52;;;;;;;3.50;2.00;;;;;;;21.25;68.35;100666.13;5103902;28;20192;-62
2023/08/10 02:48:17;;;;;;;3.17;1.90;;;;;;;21.25;69.08;100656.66;5122751;28;20436;-63
2023/08/10 02:50:43;;;;;;;4.80;2.20;;;;;;;21.24;68.96;100655.88;5110388;28;20717;-63
2023/08/10 02:53:08;;;;;;;4.47;2.47;;;;;;;21.24;69.03;100664.47;5104121;28;20530;-62
2023/08/10 02:55:34;;;;;;;3.67;2.20;;;;;;;21.24;68.83;100655.03;5112117;28;20478;-63
2023/08/10 02:57:59;;;;;;;3.63;2.27;;;;;;;21.23;68.65;100671.41;5125275;28;20180;-63
2023/08/10 03:00:24;;;;;;;4.60;2.40;;;;;;;21.23;68.98;100664.84;5124419;28;20283;-63
2023/08/10 03:02:50;;;;;;;5.13;2.80;;;;;;;21.21;68.63;100659.50;5125155;28;20170;-63
2023/08/10 03:05:18;;;;;;;4.07;2.60;;;;;;;21.23;68.36;100664.84;5110719;28;20186;-63
2023/08/10 03:07:45;;;;;;;5.00;2.60;;;;;;;21.21;68.52;100668.13;5104365;28;20512;-63
2023/08/10 03:10:11;;;;;;;4.37;2.70;;;;;;;21.22;68.59;100664.03;5104794;28;20424;-63
2023/08/10 03:12:36;;;;;;;3.47;2.60;;;;;;;21.21;69.03;100662.38;5085472;28;20412;-62
2023/08/10 03:15:04;;;;;;;3.77;2.20;;;;;;;21.21;68.84;100668.13;5123002;28;20447;-63
2023/08/10 03:17:30;;;;;;;3.00;2.20;;;;;;;21.21;68.50;100667.28;5125176;28;20221;-63
2023/08/10 03:19:55;;;;;;;3.33;2.00;;;;;;;21.21;68.51;100668.13;5126325;28;20480;-63
2023/08/10 03:22:21;;;;;;;4.20;2.40;;;;;;;21.19;68.30;100664.81;5121824;28;20206;-62
2023/08/10 03:24:46;;;;;;;4.50;2.33;;;;;;;21.20;68.90;100672.22;5103392;28;20335;-63
2023/08/10 03:27:11;;;;;;;3.40;2.30;;;;;;;21.20;68.18;100671.38;5102886;28;20183;-62
2023/08/10 03:29:37;;;;;;;3.97;2.30;;;;;;;21.19;68.34;100670.56;5101734;28;20182;-62
2023/08/10 03:32:02;;;;;;;3.60;2.10;;;;;;;21.19;68.47;100669.72;5098239;28;20212;-62
2023/08/10 03:34:28;;;;;;;4.10;2.40;;;;;;;21.18;68.83;100668.88;5101124;28;20192;-63
2023/08/10 03:36:54;;;;;;;4.23;2.40;;;;;;;21.18;68.42;100674.63;5111730;28;20182;-63
2023/08/10 03:39:19;;;;;;;4.37;2.50;;;;;;;21.18;68.63;100676.69;5116981;28;20189;-63
2023/08/10 03:41:45;;;;;;;3.80;2.17;;;;;;;21.17;68.27;100681.59;5100533;28;20204;-62
2023/08/10 03:44:11;;;;;;;3.80;2.10;;;;;;;21.17;68.24;100684.47;5109649;28;20185;-63
2023/08/10 03:46:36;;;;;;;2.93;2.03;;;;;;;21.18;68.14;100685.31;5117448;28;20450;-62
2023/08/10 03:49:02;;;;;;;3.17;1.97;;;;;;;21.18;68.53;100688.19;5117237;28;20194;-63
2023/08/10 03:51:27;;;;;;;3.63;2.23;;;;;;;21.17;68.26;100686.53;5115835;28;20184;-63
2023/08/10 03:53:53;;;;;;;3.50;2.20;;;;;;;21.16;68.29;100684.84;5102321;28;20179;-63
2023/08/10 03:56:18;;;;;;;2.83;1.90;;;;;;;21.17;68.00;100690.22;5118552;28;20266;-63
2023/08/10 03:58:44;;;;;;;3.40;2.23;;;;;;;21.17;67.96;100695.94;5107153;28;20190;-63
2023/08/10 04:01:09;;;;;;;3.50;2.40;;;;;;;21.15;68.29;100695.53;5121157;28;20254;-62
2023/08/10 04:03:35;;;;;;;3.40;2.03;;;;;;;21.15;68.42;100692.66;5105072;28;20207;-63
2023/08/10 04:06:00;;;;;;;3.33;2.23;;;;;;;21.15;68.30;100694.69;5118577;28;20179;-62
2023/08/10 04:08:25;;;;;;;3.50;2.33;;;;;;;21.16;68.12;100697.19;5123006;28;20188;-63
2023/08/10 04:10:51;;;;;;;3.30;2.27;;;;;;;21.15;67.94;100704.13;5121900;28;20180;-63
2023/08/10 04:13:16;;;;;;;3.40;2.20;;;;;;;21.15;68.29;100704.13;5105019;28;20272;-63
2023/08/10 04:15:42;;;;;;;3.60;2.13;;;;;;;21.15;68.35;100706.16;5118551;27;20234;-62
2023/08/10 04:18:07;;;;;;;5.30;2.60;;;;;;;21.14;68.06;100708.22;5113972;28;20378;-62
2023/08/10 04:20:33;;;;;;;4.47;2.77;;;;;;;21.14;68.21;100708.22;5140325;27;20200;-62
2023/08/10 04:22:59;;;;;;;3.87;1.90;;;;;;;21.13;68.26;100706.56;5102316;27;20183;-62
2023/08/10 04:25:25;;;;;;;3.37;2.17;;;;;;;21.12;67.81;100710.66;5102245;28;20186;-62
2023/08/10 04:27:50;;;;;;;3.10;1.90;;;;;;;21.13;67.90;100711.50;5098642;28;20419;-63
2023/08/10 04:30:16;;;;;;;3.80;2.10;;;;;;;21.13;67.87;100715.16;5099625;28;20551;-63
2023/08/10 04:32:42;;;;;;;3.83;2.30;;;;;;;21.13;68.08;100711.50;5107609;28;20193;-62
2023/08/10 04:35:07;;;;;;;4.47;2.30;;;;;;;21.12;67.84;100716.38;5128039;27;20419;-62
2023/08/10 04:37:33;;;;;;;4.03;2.37;;;;;;;21.12;68.29;100721.31;5123070;28;20184;-63
2023/08/10 04:39:59;;;;;;;3.60;2.60;;;;;;;21.11;67.86;100720.47;5105828;28;20225;-62
2023/08/10 04:42:24;;;;;;;5.40;2.17;;;;;;;21.11;67.95;100711.88;5070563;28;20412;-62
2023/08/10 04:44:50;;;;;;;3.50;2.17;;;;;;;21.11;68.11;100716.78;5115658;27;20201;-63
2023/08/10 04:47:15;;;;;;;3.33;2.07;;;;;;;21.11;68.12;100720.47;5126413;27;20181;-63
2023/08/10 04:49:41;;;;;;;3.17;2.33;;;;;;;21.10;68.14;100724.56;5101217;28;20201;-62
2023/08/10 04:52:07;;;;;;;4.00;2.50;;;;;;;21.10;68.06;100721.72;5102227;28;20185;-63
2023/08/10 04:54:32;;;;;;;4.23;2.80;;;;;;;21.10;68.31;100720.88;5100414;28;20184;-63
2023/08/10 04:56:57;;;;;;;5.27;2.50;;;;;;;21.10;68.20;100724.56;5123467;28;20199;-63
2023/08/10 04:59:23;;;;;;;3.30;2.13;;;;;;;21.10;67.93;100723.75;5134327;27;20176;-62
2023/08/10 05:01:48;;;;;;;2.90;2.00;;;;;;;21.10;68.14;100724.56;5116743;28;20205;-62
2023/08/10 05:04:15;;;;;;;3.13;1.90;;;;;;;21.09;67.89;100717.19;5110527;28;20193;-62
2023/08/10 05:06:41;;;;;;;3.00;1.43;;;;;;;21.10;67.61;100715.97;5110378;28;20255;-62
2023/08/10 05:09:06;;;;;;;3.67;2.43;;;;;;;21.10;68.53;100718.84;5109030;28;20421;-62
2023/08/10 05:11:31;;;;;;;3.37;2.37;;;;;;;21.09;68.07;100725.78;5110211;28;20435;-62
2023/08/10 05:13:57;;;;;;;3.27;2.20;;;;;;;21.10;68.40;100720.88;5134490;28;20188;-62
2023/08/10 05:16:22;;;;;;;3.80;2.20;;;;;;;21.09;67.93;100728.66;5142274;28;20217;-62
2023/08/10 05:18:48;;;;;;;3.27;1.90;;;;;;;21.09;67.88;100728.66;5120809;28;20194;-62
2023/08/10 05:21:14;;;;;;;2.93;2.00;;;;;;;21.09;67.95;100733.56;5126753;28;20197;-62
2023/08/10 05:23:40;;;;;;;3.63;2.20;;;;;;;21.08;68.07;100727.00;5122717;28;20190;-62
2023/08/10 05:26:07;;;;;;;3.20;2.40;;;;;;;21.09;67.58;100728.66;5102668;28;20235;-62
2023/08/10 05:28:32;;;;;;;3.33;2.10;;;;;;;21.09;67.94;100740.16;5102368;28;20408;-63
2023/08/10 05:30:58;;;;;;;3.97;2.60;;;;;;;21.08;68.02;100744.22;5105693;28;20428;-62
2023/08/10 05:33:23;;;;;;;3.07;2.17;;;;;;;21.09;67.85;100745.91;5107869;28;20174;-63
2023/08/10 05:35:49;;;;;;;2.97;2.07;;;;;;;21.08;68.05;100747.09;5104814;28;20174;-62
2023/08/10 05:38:14;;;;;;;5.00;2.37;;;;;;;21.08;67.76;100755.69;5114606;28;20170;-62
2023/08/10 05:40:40;;;;;;;3.20;1.80;;;;;;;21.08;68.22;100758.56;5112516;28;21001;-62
2023/08/10 05:43:05;;;;;;;2.80;1.90;;;;;;;21.07;67.77;100762.66;5121952;28;20174;-63
2023/08/10 05:45:31;;;;;;;3.20;1.77;;;;;;;21.07;68.04;100759.78;5114466;28;20179;-62
2023/08/10 05:47:56;;;;;;;2.57;1.60;;;;;;;21.08;68.09;100769.25;5116477;28;20178;-62
2023/08/10 05:50:22;;;;;;;3.13;1.73;;;;;;;21.08;68.08;100772.13;5104464;28;20168;-62
2023/08/10 05:52:47;;;;;;;3.30;1.80;;;;;;;21.07;67.80;100782.75;5116834;28;20619;-62
2023/08/10 05:55:14;;;;;;;2.93;2.00;;;;;;;21.07;67.49;100788.50;5101260;28;20461;-62
2023/08/10 05:57:40;;;;;;;2.57;1.63;;;;;;;21.07;67.58;100788.50;5115448;28;20178;-63
2023/08/10 06:00:06;;;;;;;3.17;1.80;;;;;;;21.06;68.33;100781.09;5103271;28;20470;-64
2023/08/10 06:02:31;;;;;;;2.40;1.70;;;;;;;21.08;68.07;100790.16;5114005;28;20190;-62
2023/08/10 06:04:57;;;;;;;2.73;1.73;;;;;;;21.10;68.03;100792.66;5115448;27;20413;-62
2023/08/10 06:07:23;;;;;;;4.03;2.37;;;;;;;21.26;70.29;100793.28;5113455;27;20204;-62
2023/08/10 06:09:48;;;;;;;10.60;2.90;;;;;;;21.40;70.26;100791.47;5127279;27;20247;-61
2023/08/10 06:12:16;;;;;;;5.73;2.80;;;;;;;21.50;69.70;100785.06;5107018;27;20188;-63
2023/08/10 06:14:41;;;;;;;4.57;2.50;;;;;;;;;;5101099;28;20219;-62
2023/08/10 06:17:07;;;;;;;4.47;2.60;;;;;;;21.42;70.31;100789.03;5089030;28;20475;-62
2023/08/10 06:19:33;;;;;;;11.43;3.30;;;;;;;21.42;70.67;100783.28;5106616;28;20209;-62
2023/08/10 06:21:58;;;;;;;6.40;2.80;;;;;;;21.42;70.96;100789.03;5091365;28;20773;-62
2023/08/10 06:24:24;;;;;;;4.63;2.60;;;;;;;21.48;70.54;100786.66;5082795;28;20515;-62
2023/08/10 06:26:49;;;;;;;4.40;2.37;;;;;;;21.49;70.79;100794.06;5089003;28;20170;-62
2023/08/10 06:29:15;;;;;;;3.73;2.40;;;;;;;21.47;70.87;100803.06;5112137;28;20186;-63
2023/08/10 06:31:41;;;;;;;5.13;2.77;;;;;;;21.58;71.82;100801.16;5104627;28;20175;-63
2023/08/10 06:34:07;;;;;;;4.80;3.20;;;;;;;21.79;71.86;100810.13;5087760;28;20423;-64
2023/08/10 06:36:35;;;;;;;4.77;3.23;;;;;;;21.88;72.56;100807.75;5112069;28;20423;-65
2023/08/10 06:39:01;;;;;;;5.23;3.37;;;;;;;21.74;71.15;100804.72;5086796;28;20939;-65
2023/08/10 06:41:27;;;;;;;4.93;2.90;;;;;;;21.62;71.49;100804.91;5100636;28;20464;-64
2023/08/10 06:43:52;;;;;;;4.43;3.17;;;;;;;21.54;70.92;100802.34;5088403;28;20244;-64
2023/08/10 06:46:18;;;;;;;4.00;2.97;;;;;;;21.53;69.83;100812.19;5121752;27;20181;-62
2023/08/10 06:48:43;;;;;;;4.47;3.40;;;;;;;21.56;70.38;100805.63;5126165;28;20198;-63
2023/08/10 06:51:09;;;;;;;4.67;2.50;;;;;;;21.57;69.64;100807.31;5110800;28;20154;-63
2023/08/10 06:53:34;;;;;;;4.47;2.60;;;;;;;21.61;69.71;100803.25;5125619;28;20166;-62
2023/08/10 06:56:00;;;;;;;5.10;2.87;;;;;;;21.61;69.08;100802.41;5128601;28;20170;-62
2023/08/10 06:58:25;;;;;;;4.47;2.63;;;;;;;21.60;69.52;100803.66;5122074;28;20192;-62
2023/08/10 07:00:51;;;;;;;4.90;2.90;;;;;;;21.59;69.92;100802.84;5113859;28;20236;-62
2023/08/10 07:03:16;;;;;;;6.90;2.30;;;;;;;21.58;70.00;100798.28;5122261;28;20204;-62
2023/08/10 07:05:42;;;;;;;3.90;2.83;;;;;;;21.63;69.96;100805.75;5099252;28;20525;-62
2023/08/10 07:08:08;;;;;;;3.90;2.30;;;;;;;21.63;69.67;100803.69;5110523;28;20197;-63
2023/08/10 07:10:34;;;;;;;3.27;2.30;;;;;;;21.63;69.90;100800.81;5110587;28;21099;-62
2023/08/10 07:13:00;;;;;;;3.20;2.40;;;;;;;21.62;70.05;100799.16;5108814;28;20292;-62
2023/08/10 07:15:25;;;;;;;4.70;2.43;;;;;;;21.57;69.45;100802.38;5104812;27;20424;-63
2023/08/10 07:17:51;;;;;;;4.43;2.80;;;;;;;21.51;69.54;100803.94;5100558;28;20262;-65
2023/08/10 07:20:18;;;;;;;7.00;4.07;;;;;;;21.45;69.36;100793.16;5091536;28;20357;-65
2023/08/10 07:22:45;;;;;;;4.43;3.20;;;;;;;21.39;69.10;100807.06;5088938;28;20208;-65
2023/08/10 07:25:11;;;;;;;6.83;2.60;;;;;;;21.34;69.75;100804.53;5104765;28;20467;-66
2023/08/10 07:27:37;;;;;;;4.07;2.67;;;;;;;21.32;69.57;100801.19;5094975;28;20425;-67
2023/08/10 07:30:05;;;;;;;3.40;2.53;;;;;;;21.33;69.60;100802.84;5092611;28;20973;-66
2023/08/10 07:32:31;;;;;;;5.30;2.60;;;;;;;21.31;68.45;100798.69;5089118;28;20189;-65
2023/08/10 07:34:56;;;;;;;4.43;2.80;;;;;;;21.26;68.38;100788.41;5109355;27;20416;-65
2023/08/10 07:37:22;;;;;;;4.37;3.20;;;;;;;21.22;68.47;100792.44;5081727;28;20327;-66
2023/08/10 07:39:47;;;;;;;5.97;3.50;;;;;;;21.18;69.04;100795.22;5090248;28;20217;-65
2023/08/10 07:42:13;;;;;;;4.80;2.80;;;;;;;21.24;69.79;100798.63;5102120;28;20181;-66
2023/08/10 07:44:39;;;;;;;4.73;3.40;;;;;;;21.28;71.13;100800.31;5102341;28;20338;-65
2023/08/10 07:47:04;;;;;;;5.17;3.20;;;;;;;21.31;71.09;100795.84;5102547;28;20227;-67
2023/08/10 07:49:31;;;;;;;7.30;3.50;;;;;;;21.34;70.20;100800.81;5091180;28;20217;-66
2023/08/10 07:51:57;;;;;;;8.30;3.20;;;;;;;21.32;70.16;100801.19;5103391;28;20181;-66
2023/08/10 07:54:22;;;;;;;5.60;3.53;;;;;;;21.31;69.94;100799.53;5101560;27;20427;-66
2023/08/10 07:56:47;;;;;;;7.47;3.20;;;;;;;21.30;70.12;100786.41;5101119;28;20201;-65
2023/08/10 07:59:13;;;;;;;7.80;3.33;;;;;;;21.32;70.36;100792.59;5105902;28;20545;-68
2023/08/10 08:01:38;;;;;;;7.93;3.73;;;;;;;21.33;71.05;100791.34;5116140;28;20207;-65
2023/08/10 08:04:04;;;;;;;6.07;3.50;;;;;;;21.32;70.41;100789.72;5107407;27;20182;-65
2023/08/10 08:06:30;;;;;;;8.93;4.33;;;;;;;21.32;71.21;100798.31;5099354;28;20297;-66
2023/08/10 08:08:55;;;;;;;10.20;3.60;;;;;;;21.34;71.63;100793.03;5102249;27;20501;-65
2023/08/10 08:11:21;;;;;;;7.63;3.93;;;;;;;21.35;72.35;100794.69;5087492;28;20793;-64
2023/08/10 08:13:46;;;;;;;8.27;3.47;;;;;;;21.33;72.37;100796.28;5099381;27;20289;-66
2023/08/10 08:16:12;;;;;;;8.93;3.43;;;;;;;21.33;72.39;100796.28;5080180;28;20185;-65
2023/08/10 08:18:48;;;;;;;8.60;4.13;;;;;;;21.35;73.22;100788.09;5099420;28;20204;-66
2023/08/10 08:21:15;;;;;;;9.90;3.90;;;;;;;21.35;72.89;100790.97;5107078;28;20212;-65
2023/08/10 08:23:41;;;;;;;17.00;4.10;;;;;;;21.37;73.68;100785.69;5099845;28;20518;-67
2023/08/10 08:26:06;;;;;;;14.33;4.67;;;;;;;21.38;73.00;100787.34;5089907;28;20403;-67
2023/08/10 08:28:32;;;;;;;6.40;4.10;;;;;;;21.39;73.76;100783.25;5090974;28;20202;-67
2023/08/10 08:30:57;;;;;;;8.50;4.00;;;;;;;21.40;73.99;100794.34;5079399;28;20185;-66
2023/08/10 08:33:23;;;;;;;15.33;4.43;;;;;;;21.39;73.43;100792.69;5084118;28;20216;-68
2023/08/10 08:35:48;;;;;;;7.50;3.60;;;;;;;21.39;73.70;100784.09;5099240;27;20185;-70
2023/08/10 08:38:14;;;;;;;9.27;4.10;;;;;;;21.43;74.16;100789.88;5097612;28;20190;-70
2023/08/10 08:40:40;;;;;;;10.33;4.23;;;;;;;21.48;73.99;100780.91;5091631;27;20912;-70
2023/08/10 08:43:05;;;;;;;8.10;3.87;;;;;;;21.44;73.97;100783.75;5069295;28;20213;-68
2023/08/10 08:45:31;;;;;;;7.17;4.00;;;;;;;21.45;74.41;100781.69;5134828;27;20430;-67
2023/08/10 08:47:57;;;;;;;9.10;4.47;;;;;;;21.41;73.68;100781.63;5080287;28;20646;-67
2023/08/10 08:50:23;;;;;;;12.40;4.10;;;;;;;21.39;73.06;100772.59;5087609;28;20544;-68
2023/08/10 08:52:48;;;;;;;8.87;3.80;;;;;;;21.38;72.92;100775.84;5102216;28;20666;-66
2023/08/10 08:55:14;;;;;;;7.20;3.53;;;;;;;21.37;72.51;100777.06;5093904;28;20416;-67
2023/08/10 08:57:39;;;;;;;6.60;4.00;;;;;;;21.37;73.49;100775.00;5108573;28;20886;-70
2023/08/10 09:00:06;;;;;;;4.60;3.10;;;;;;;21.40;73.72;100774.25;5106136;28;20193;-67
2023/08/10 09:02:32;;;;;;;6.67;3.40;;;;;;;21.45;74.06;100765.28;5089101;28;20265;-65
2023/08/10 09:04:59;;;;;;;7.77;3.53;;;;;;;21.42;73.20;100765.25;5088242;28;20431;-64
2023/08/10 09:07:30;;;;;;;10.50;3.27;;;;;;;21.41;73.00;100754.94;5078883;28;20280;-64
2023/08/10 09:09:56;;;;;;;11.93;3.50;;;;;;;21.39;72.74;100743.88;5102027;28;20433;-66
2023/08/10 09:12:31;;;;;;;15.00;4.40;;;;;;;21.38;72.72;100747.13;5093012;28;20431;-63
2023/08/10 09:15:27;;;;;;;7.77;3.50;;;;;;;21.40;73.75;100736.91;5136831;28;20277;-63
2023/08/10 09:17:52;;;;;;;6.47;4.17;;;;;;;21.41;74.07;100738.56;5106571;28;20581;-65
2023/08/10 09:20:22;;;;;;;13.60;4.60;;;;;;;21.42;73.89;100736.53;5097808;28;20473;-65
2023/08/10 09:22:52;;;;;;;15.87;4.53;;;;;;;21.41;73.82;100732.81;5091711;28;20182;-64
2023/08/10 09:25:18;;;;;;;11.33;3.90;;;;;;;21.45;74.22;100735.72;5070753;28;20440;-64
2023/08/10 09:27:44;;;;;;;10.27;3.67;;;;;;;21.48;75.47;100735.75;5099168;28;20431;-66
2023/08/10 09:30:10;;;;;;;6.90;4.07;;;;;;;21.47;75.26;100734.09;5095401;28;20237;-64
2023/08/10 09:32:36;;;;;;;9.63;3.50;;;;;;;21.43;75.22;100729.53;5117940;28;20479;-65
2023/08/10 09:35:02;;;;;;;11.33;3.70;;;;;;;21.44;74.49;100722.56;5106130;28;20207;-66
2023/08/10 09:37:28;;;;;;;8.50;4.20;;;;;;;21.43;75.07;100726.66;5113481;28;20189;-63
2023/08/10 09:40:14;;;;;;;6.90;3.80;;;;;;;21.45;75.02;100725.06;5107576;28;20459;-70
2023/08/10 09:42:40;;;;;;;9.43;3.50;;;;;;;21.45;75.35;100719.31;5114799;27;20172;-71
2023/08/10 09:45:11;;;;;;;7.60;3.53;;;;;;;21.48;75.23;100729.19;5073874;28;20434;-64
2023/08/10 09:47:39;;;;;;;9.23;4.07;;;;;;;21.48;75.90;100723.47;5094370;28;20209;-65
2023/08/10 09:50:09;;;;;;;9.80;3.40;;;;;;;21.45;75.28;100729.97;5110995;28;20494;-66
2023/08/10 09:52:36;;;;;;;8.33;3.40;;;;;;;21.45;75.43;100727.09;5085241;28;20482;-64
2023/08/10 09:55:02;;;;;;;6.77;3.90;;;;;;;21.47;75.33;100716.88;5109177;28;20441;-65
2023/08/10 09:57:30;;;;;;;7.57;3.17;;;;;;;21.48;74.77;100714.84;5060858;28;20456;-66
2023/08/10 09:59:55;;;;;;;4.53;3.30;;;;;;;21.45;74.83;100712.72;5094320;28;20198;-62
2023/08/10 10:02:23;;;;;;;6.10;3.20;;;;;;;21.48;74.17;100717.72;5088402;27;20434;-64
2023/08/10 10:04:48;;;;;;;7.00;3.47;;;;;;;21.51;74.24;100729.25;5120244;27;20185;-62
2023/08/10 10:07:16;;;;;;;6.93;3.60;;;;;;;21.49;74.01;100720.19;5100943;28;20470;-62
2023/08/10 10:09:44;;;;;;;5.87;3.50;;;;;;;21.50;73.76;100716.09;5107120;28;20190;-60
2023/08/10 10:12:11;;;;;;;6.97;3.30;;;;;;;21.49;72.93;100711.59;5086649;28;20447;-63
2023/08/10 10:14:41;;;;;;;4.20;2.83;;;;;;;21.50;72.66;100704.63;5116985;27;20435;-63
2023/08/10 10:17:08;;;;;;;6.50;3.10;;;;;;;21.51;72.80;100699.66;5127718;27;20459;-61
2023/08/10 10:19:34;;;;;;;11.50;4.60;;;;;;;21.53;72.44;100697.25;5092325;28;20447;-61
2023/08/10 10:21:59;;;;;;;4.53;3.00;;;;;;;21.54;72.43;100687.41;5101194;28;20451;-63
2023/08/10 10:24:28;;;;;;;5.20;3.60;;;;;;;21.54;71.85;100688.25;5058157;28;20182;-63
2023/08/10 10:27:00;;;;;;;4.93;3.37;;;;;;;21.55;71.48;100687.03;5093145;28;20175;-64
2023/08/10 10:29:51;;;;;;;16.07;3.70;;;;;;;21.57;71.42;100681.69;5109382;28;20467;-63
2023/08/10 10:32:21;;;;;;;6.03;2.80;;;;;;;21.55;71.73;100678.41;5103286;28;20489;-64
2023/08/10 10:34:47;;;;;;;4.87;2.83;;;;;;;21.53;71.18;100675.06;5108565;28;20426;-64
2023/08/10 10:37:20;;;;;;;36.43;4.60;;;;;;;21.55;73.59;100669.78;5110525;28;20432;-65
2023/08/10 10:39:49;;;;;;;117.00;9.83;;;;;;;21.52;74.28;100667.69;5111059;28;20455;-61
2023/08/10 10:42:15;;;;;;;57.23;7.67;;;;;;;21.57;73.49;100660.78;5084865;28;20471;-63
2023/08/10 10:44:59;;;;;;;55.97;6.93;;;;;;;21.56;73.12;100650.47;5111391;27;20435;-62
2023/08/10 10:47:38;;;;;;;64.77;7.23;;;;;;;21.54;73.50;100647.19;5106821;28;20496;-61
2023/08/10 10:50:16;;;;;;;34.37;7.03;;;;;;;21.49;72.72;100644.66;5091599;28;20659;-62
2023/08/10 10:52:52;;;;;;;51.17;6.33;;;;;;;21.50;73.02;100649.19;5105857;28;20949;-63
2023/08/10 10:55:18;;;;;;;48.70;6.00;;;;;;;21.52;73.65;100649.63;5103122;28;20493;-63
2023/08/10 10:57:44;;;;;;;28.03;4.13;;;;;;;21.56;71.69;100651.31;5093712;28;20479;-63
2023/08/10 11:00:12;;;;;;;38.47;5.63;;;;;;;21.57;71.00;100646.41;5081407;28;20210;-64
2023/08/10 11:02:38;;;;;;;31.17;4.10;;;;;;;21.59;71.14;100646.84;5089633;28;20473;-61
2023/08/10 11:05:09;;;;;;;20.80;3.97;;;;;;;21.62;69.70;100644.00;5087988;28;20424;-63
2023/08/10 11:07:39;;;;;;;12.97;4.33;;;;;;;21.58;70.31;100651.75;5059515;28;20178;-64
2023/08/10 11:10:08;;;;;;;12.60;3.90;;;;;;;21.53;70.62;100652.09;5092085;28;20432;-64
2023/08/10 11:12:39;;;;;;;34.23;5.47;;;;;;;21.55;71.03;100646.81;5098036;28;20448;-63
2023/08/10 11:15:09;;;;;;;18.13;4.20;;;;;;;21.56;71.08;100644.72;5088330;28;20416;-62
2023/08/10 11:17:35;;;;;;;12.90;3.73;;;;;;;21.61;71.74;100656.72;5096430;28;20987;-64
2023/08/10 11:20:06;;;;;;;6.43;2.70;;;;;;;21.69;69.38;100654.78;5064565;28;20475;-65
2023/08/10 11:22:32;;;;;;;7.77;3.23;;;;;;;21.69;69.19;100652.75;5085719;28;20436;-64
2023/08/10 11:24:57;;;;;;;11.87;3.97;;;;;;;21.64;69.42;100650.19;5093426;28;20432;-64